sensor_id;sensor_type;location;lat;lon;timestamp;pressure;altitude;pressure_sealevel;temperature;humidity
38400;BME280;24180;42.676;23.320;2023-02-15T00:16:18;95967.88;;;1.83;100.00
38400;BME280;24180;42.676;23.320;2023-02-15T00:18:44;95926.94;;;1.43;100.00
38400;BME280;24180;42.676;23.320;2023-02-15T00:21:10;95965.09;;;1.68;100.00
38400;BME280;24180;42.676;23.320;2023-02-15T00:23:35;95933.19;;;1.36;100.00
38400;BME280;24180;42.676;23.320;2023-02-15T00:26:10;95929.84;;;1.34;100.00
38400;BME280;24180;42.676;23.320;2023-02-15T00:28:36;95908.25;;;1.21;100.00
38400;BME280;24180;42.676;23.320;2023-02-15T00:31:11;95969.19;;;1.50;100.00
38400;BME280;24180;42.676;23.320;2023-02-15T00:33:38;95968.22;;;1.53;100.00
38400;BME280;24180;42.676;23.320;2023-02-15T00:36:06;95972.41;;;1.55;100.00
38400;BME280;24180;42.676;23.320;2023-02-15T00:38:32;95958.84;;;1.53;100.00
38400;BME280;24180;42.676;23.320;2023-02-15T00:41:00;95908.50;;;1.15;100.00
38400;BME280;24180;42.676;23.320;2023-02-15T00:43:26;95962.53;;;1.46;100.00
38400;BME280;24180;42.676;23.320;2023-02-15T00:45:52;95989.56;;;1.52;100.00
38400;BME280;24180;42.676;23.320;2023-02-15T00:48:18;95966.81;;;1.46;100.00
38400;BME280;24180;42.676;23.320;2023-02-15T00:50:55;95928.66;;;1.21;100.00
38400;BME280;24180;42.676;23.320;2023-02-15T00:53:21;95963.25;;;1.50;100.00
38400;BME280;24180;42.676;23.320;2023-02-15T00:55:47;95956.03;;;1.39;100.00
38400;BME280;24180;42.676;23.320;2023-02-15T00:58:13;95956.59;;;1.46;100.00
38400;BME280;24180;42.676;23.320;2023-02-15T01:00:40;95941.78;;;1.33;100.00
38400;BME280;24180;42.676;23.320;2023-02-15T01:03:06;95960.78;;;1.48;100.00
38400;BME280;24180;42.676;23.320;2023-02-15T01:05:31;95933.19;;;1.36;100.00
38400;BME280;24180;42.676;23.320;2023-02-15T01:07:58;95929.69;;;1.38;100.00
38400;BME280;24180;42.676;23.320;2023-02-15T01:10:25;95953.00;;;1.51;100.00
38400;BME280;24180;42.676;23.320;2023-02-15T01:12:52;95968.75;;;1.61;100.00
38400;BME280;24180;42.676;23.320;2023-02-15T01:15:18;95936.81;;;1.52;100.00
38400;BME280;24180;42.676;23.320;2023-02-15T01:17:43;95959.28;;;1.64;100.00
38400;BME280;24180;42.676;23.320;2023-02-15T01:20:14;95912.69;;;1.37;100.00
38400;BME280;24180;42.676;23.320;2023-02-15T01:22:40;95936.00;;;1.50;100.00
38400;BME280;24180;42.676;23.320;2023-02-15T01:25:05;95945.09;;;1.57;100.00
38400;BME280;24180;42.676;23.320;2023-02-15T01:27:31;95957.94;;;1.56;100.00
38400;BME280;24180;42.676;23.320;2023-02-15T01:29:56;95909.56;;;1.31;100.00
38400;BME280;24180;42.676;23.320;2023-02-15T01:32:22;95960.34;;;1.59;100.00
38400;BME280;24180;42.676;23.320;2023-02-15T01:34:48;95951.72;;;1.61;100.00
38400;BME280;24180;42.676;23.320;2023-02-15T01:37:13;95945.22;;;1.54;100.00
38400;BME280;24180;42.676;23.320;2023-02-15T01:39:39;95953.53;;;1.59;100.00
38400;BME280;24180;42.676;23.320;2023-02-15T01:42:04;95929.31;;;1.48;100.00
38400;BME280;24180;42.676;23.320;2023-02-15T01:49:48;95872.13;;;1.10;100.00
38400;BME280;24180;42.676;23.320;2023-02-15T01:52:17;95861.50;;;0.99;100.00
38400;BME280;24180;42.676;23.320;2023-02-15T01:54:45;95916.75;;;1.43;100.00
38400;BME280;24180;42.676;23.320;2023-02-15T01:57:16;95881.25;;;1.15;100.00
38400;BME280;24180;42.676;23.320;2023-02-15T01:59:46;95922.72;;;1.42;100.00
38400;BME280;24180;42.676;23.320;2023-02-15T02:02:15;95907.34;;;1.22;100.00
38400;BME280;24180;42.676;23.320;2023-02-15T02:04:47;95886.50;;;1.12;100.00
38400;BME280;24180;42.676;23.320;2023-02-15T02:07:16;95925.63;;;1.33;100.00
38400;BME280;24180;42.676;23.320;2023-02-15T02:09:43;95892.41;;;1.13;100.00
38400;BME280;24180;42.676;23.320;2023-02-15T02:12:09;95926.56;;;1.09;100.00
38400;BME280;24180;42.676;23.320;2023-02-15T02:14:36;95886.13;;;1.00;100.00
38400;BME280;24180;42.676;23.320;2023-02-15T02:17:10;95867.84;;;0.88;100.00
38400;BME280;24180;42.676;23.320;2023-02-15T02:22:48;95936.53;;;1.36;100.00
38400;BME280;24180;42.676;23.320;2023-02-15T02:28:10;95952.81;;;1.34;100.00
38400;BME280;24180;42.676;23.320;2023-02-15T02:36:51;95936.84;;;1.51;100.00
38400;BME280;24180;42.676;23.320;2023-02-15T02:42:05;95951.03;;;1.58;100.00
38400;BME280;24180;42.676;23.320;2023-02-15T02:44:42;95933.25;;;1.56;100.00
38400;BME280;24180;42.676;23.320;2023-02-15T02:47:30;95943.13;;;1.64;100.00
38400;BME280;24180;42.676;23.320;2023-02-15T02:50:16;95916.47;;;1.49;100.00
38400;BME280;24180;42.676;23.320;2023-02-15T02:52:50;95923.97;;;1.54;100.00
38400;BME280;24180;42.676;23.320;2023-02-15T02:57:52;95943.84;;;1.67;100.00
38400;BME280;24180;42.676;23.320;2023-02-15T03:00:19;95941.41;;;1.64;100.00
38400;BME280;24180;42.676;23.320;2023-02-15T03:02:47;95916.25;;;1.55;100.00
38400;BME280;24180;42.676;23.320;2023-02-15T03:05:17;95912.56;;;1.62;100.00
38400;BME280;24180;42.676;23.320;2023-02-15T03:07:47;95887.97;;;1.39;100.00
38400;BME280;24180;42.676;23.320;2023-02-15T03:10:17;95941.88;;;1.74;100.00
38400;BME280;24180;42.676;23.320;2023-02-15T03:12:43;95932.63;;;1.71;100.00
38400;BME280;24180;42.676;23.320;2023-02-15T03:15:22;95937.47;;;1.77;100.00
38400;BME280;24180;42.676;23.320;2023-02-15T03:17:53;95934.03;;;1.78;100.00
38400;BME280;24180;42.676;23.320;2023-02-15T03:20:25;95957.53;;;1.86;100.00
38400;BME280;24180;42.676;23.320;2023-02-15T03:23:02;95952.19;;;1.93;100.00
38400;BME280;24180;42.676;23.320;2023-02-15T03:25:34;95922.28;;;1.74;100.00
38400;BME280;24180;42.676;23.320;2023-02-15T03:28:17;95934.53;;;1.86;100.00
38400;BME280;24180;42.676;23.320;2023-02-15T03:30:46;95970.69;;;1.98;100.00
38400;BME280;24180;42.676;23.320;2023-02-15T03:33:14;95954.09;;;1.87;100.00
38400;BME280;24180;42.676;23.320;2023-02-15T03:36:21;95959.06;;;1.91;100.00
38400;BME280;24180;42.676;23.320;2023-02-15T03:41:41;95960.56;;;1.96;100.00
38400;BME280;24180;42.676;23.320;2023-02-15T03:44:25;95925.91;;;1.89;100.00
38400;BME280;24180;42.676;23.320;2023-02-15T03:47:11;95967.91;;;2.04;100.00
38400;BME280;24180;42.676;23.320;2023-02-15T03:49:53;95928.09;;;1.78;100.00
38400;BME280;24180;42.676;23.320;2023-02-15T03:52:21;95962.13;;;1.99;100.00
38400;BME280;24180;42.676;23.320;2023-02-15T03:54:49;95956.25;;;1.97;100.00
38400;BME280;24180;42.676;23.320;2023-02-15T04:00:25;95964.66;;;2.00;100.00
38400;BME280;24180;42.676;23.320;2023-02-15T04:05:44;95957.78;;;2.01;100.00
38400;BME280;24180;42.676;23.320;2023-02-15T04:08:11;95963.91;;;1.97;100.00
38400;BME280;24180;42.676;23.320;2023-02-15T04:10:36;95931.84;;;1.89;100.00
38400;BME280;24180;42.676;23.320;2023-02-15T04:13:20;95939.69;;;1.85;100.00
38400;BME280;24180;42.676;23.320;2023-02-15T04:15:46;95983.09;;;2.07;100.00
38400;BME280;24180;42.676;23.320;2023-02-15T04:21:22;95980.69;;;2.04;100.00
38400;BME280;24180;42.676;23.320;2023-02-15T04:24:07;95961.34;;;1.97;100.00
38400;BME280;24180;42.676;23.320;2023-02-15T04:26:51;95977.19;;;2.05;100.00
38400;BME280;24180;42.676;23.320;2023-02-15T04:29:18;95965.25;;;1.85;100.00
38400;BME280;24180;42.676;23.320;2023-02-15T04:31:45;96002.50;;;2.11;100.00
38400;BME280;24180;42.676;23.320;2023-02-15T04:34:10;96003.78;;;2.21;100.00
38400;BME280;24180;42.676;23.320;2023-02-15T04:36:37;95964.03;;;1.94;100.00
38400;BME280;24180;42.676;23.320;2023-02-15T04:39:03;95960.09;;;1.86;100.00
38400;BME280;24180;42.676;23.320;2023-02-15T04:41:28;95990.72;;;2.08;100.00
38400;BME280;24180;42.676;23.320;2023-02-15T04:43:53;96004.22;;;2.10;100.00
38400;BME280;24180;42.676;23.320;2023-02-15T04:46:20;96009.28;;;2.12;100.00
38400;BME280;24180;42.676;23.320;2023-02-15T04:48:45;95947.56;;;1.80;100.00
38400;BME280;24180;42.676;23.320;2023-02-15T04:51:11;95967.50;;;1.93;100.00
38400;BME280;24180;42.676;23.320;2023-02-15T04:53:36;95983.41;;;1.99;100.00
38400;BME280;24180;42.676;23.320;2023-02-15T04:56:02;96007.75;;;2.08;100.00
38400;BME280;24180;42.676;23.320;2023-02-15T04:58:27;95967.50;;;1.93;100.00
38400;BME280;24180;42.676;23.320;2023-02-15T05:00:56;95970.88;;;1.93;100.00
38400;BME280;24180;42.676;23.320;2023-02-15T05:03:22;96000.59;;;1.96;100.00
38400;BME280;24180;42.676;23.320;2023-02-15T05:05:48;95978.75;;;1.88;100.00
38400;BME280;24180;42.676;23.320;2023-02-15T05:08:14;96019.50;;;2.12;100.00
38400;BME280;24180;42.676;23.320;2023-02-15T05:10:39;95989.41;;;1.98;100.00
38400;BME280;24180;42.676;23.320;2023-02-15T05:13:04;96000.00;;;2.09;100.00
38400;BME280;24180;42.676;23.320;2023-02-15T05:15:30;95987.63;;;2.00;100.00
38400;BME280;24180;42.676;23.320;2023-02-15T05:17:55;96021.94;;;2.15;100.00
38400;BME280;24180;42.676;23.320;2023-02-15T05:20:21;96027.81;;;2.17;100.00
38400;BME280;24180;42.676;23.320;2023-02-15T05:22:46;96012.97;;;2.05;100.00
38400;BME280;24180;42.676;23.320;2023-02-15T05:25:12;95992.13;;;1.94;100.00
38400;BME280;24180;42.676;23.320;2023-02-15T05:27:56;96042.25;;;2.18;100.00
38400;BME280;24180;42.676;23.320;2023-02-15T05:30:40;96013.19;;;2.00;100.00
38400;BME280;24180;42.676;23.320;2023-02-15T05:33:07;96028.72;;;2.16;100.00
38400;BME280;24180;42.676;23.320;2023-02-15T05:35:33;96032.69;;;2.23;100.00
38400;BME280;24180;42.676;23.320;2023-02-15T05:37:58;96027.56;;;2.23;100.00
38400;BME280;24180;42.676;23.320;2023-02-15T05:40:24;96048.59;;;2.29;100.00
38400;BME280;24180;42.676;23.320;2023-02-15T05:42:49;96025.63;;;2.08;100.00
38400;BME280;24180;42.676;23.320;2023-02-15T05:45:15;96012.34;;;2.00;100.00
38400;BME280;24180;42.676;23.320;2023-02-15T05:47:41;96049.59;;;2.25;100.00
38400;BME280;24180;42.676;23.320;2023-02-15T05:50:07;95991.38;;;1.92;100.00
38400;BME280;24180;42.676;23.320;2023-02-15T05:52:33;96010.31;;;2.08;100.00
38400;BME280;24180;42.676;23.320;2023-02-15T05:54:59;96020.78;;;2.22;100.00
38400;BME280;24180;42.676;23.320;2023-02-15T05:57:26;96046.38;;;2.42;100.00
38400;BME280;24180;42.676;23.320;2023-02-15T05:59:51;96057.25;;;2.47;100.00
38400;BME280;24180;42.676;23.320;2023-02-15T06:02:17;96033.34;;;2.28;100.00
38400;BME280;24180;42.676;23.320;2023-02-15T06:04:43;96019.56;;;2.10;100.00
38400;BME280;24180;42.676;23.320;2023-02-15T06:07:08;96054.31;;;2.36;100.00
38400;BME280;24180;42.676;23.320;2023-02-15T06:09:33;96019.25;;;2.18;100.00
38400;BME280;24180;42.676;23.320;2023-02-15T06:11:59;96051.94;;;2.31;100.00
38400;BME280;24180;42.676;23.320;2023-02-15T06:14:24;96039.06;;;2.33;100.00
38400;BME280;24180;42.676;23.320;2023-02-15T06:16:50;96036.31;;;2.38;100.00
38400;BME280;24180;42.676;23.320;2023-02-15T06:19:15;96016.56;;;2.21;100.00
38400;BME280;24180;42.676;23.320;2023-02-15T06:21:40;96048.28;;;2.37;100.00
38400;BME280;24180;42.676;23.320;2023-02-15T06:24:08;96048.22;;;2.39;100.00
38400;BME280;24180;42.676;23.320;2023-02-15T06:26:34;96063.31;;;2.45;100.00
38400;BME280;24180;42.676;23.320;2023-02-15T06:28:59;96048.34;;;2.35;100.00
38400;BME280;24180;42.676;23.320;2023-02-15T06:31:25;96024.88;;;2.26;100.00
38400;BME280;24180;42.676;23.320;2023-02-15T06:33:50;96053.91;;;2.45;100.00
38400;BME280;24180;42.676;23.320;2023-02-15T06:36:16;96056.41;;;2.47;100.00
38400;BME280;24180;42.676;23.320;2023-02-15T06:38:41;96043.66;;;2.45;100.00
38400;BME280;24180;42.676;23.320;2023-02-15T06:41:06;96017.69;;;2.35;100.00
38400;BME280;24180;42.676;23.320;2023-02-15T06:43:32;96071.81;;;2.65;100.00
38400;BME280;24180;42.676;23.320;2023-02-15T06:45:59;96048.22;;;2.59;100.00
38400;BME280;24180;42.676;23.320;2023-02-15T06:48:25;96065.44;;;2.75;100.00
38400;BME280;24180;42.676;23.320;2023-02-15T06:50:50;96054.94;;;2.61;100.00
38400;BME280;24180;42.676;23.320;2023-02-15T06:53:16;96001.50;;;2.35;100.00
38400;BME280;24180;42.676;23.320;2023-02-15T06:55:41;96052.50;;;2.78;100.00
38400;BME280;24180;42.676;23.320;2023-02-15T06:58:06;96057.97;;;2.90;100.00
38400;BME280;24180;42.676;23.320;2023-02-15T07:00:32;96071.41;;;2.95;100.00
38400;BME280;24180;42.676;23.320;2023-02-15T07:02:58;96036.81;;;2.86;100.00
38400;BME280;24180;42.676;23.320;2023-02-15T07:05:26;96072.41;;;3.11;100.00
38400;BME280;24180;42.676;23.320;2023-02-15T07:07:57;96052.81;;;2.91;100.00
38400;BME280;24180;42.676;23.320;2023-02-15T07:10:22;96067.47;;;2.88;100.00
38400;BME280;24180;42.676;23.320;2023-02-15T07:12:48;96039.38;;;2.86;100.00
38400;BME280;24180;42.676;23.320;2023-02-15T07:15:16;96034.97;;;2.90;100.00
38400;BME280;24180;42.676;23.320;2023-02-15T07:17:42;96058.19;;;3.24;100.00
38400;BME280;24180;42.676;23.320;2023-02-15T07:20:14;96063.47;;;3.21;100.00
38400;BME280;24180;42.676;23.320;2023-02-15T07:22:39;96065.03;;;3.23;100.00
38400;BME280;24180;42.676;23.320;2023-02-15T07:25:07;96088.31;;;3.17;100.00
38400;BME280;24180;42.676;23.320;2023-02-15T07:27:32;96043.47;;;2.90;100.00
38400;BME280;24180;42.676;23.320;2023-02-15T07:29:58;96042.28;;;2.97;100.00
38400;BME280;24180;42.676;23.320;2023-02-15T07:32:28;96078.53;;;3.27;100.00
38400;BME280;24180;42.676;23.320;2023-02-15T07:34:54;96074.44;;;3.23;100.00
38400;BME280;24180;42.676;23.320;2023-02-15T07:37:19;96039.50;;;3.22;100.00
38400;BME280;24180;42.676;23.320;2023-02-15T07:39:45;96035.91;;;3.26;100.00
38400;BME280;24180;42.676;23.320;2023-02-15T07:42:10;96055.22;;;3.33;100.00
38400;BME280;24180;42.676;23.320;2023-02-15T07:44:35;96051.75;;;3.34;100.00
38400;BME280;24180;42.676;23.320;2023-02-15T07:47:01;96034.47;;;3.39;100.00
38400;BME280;24180;42.676;23.320;2023-02-15T07:49:26;96064.84;;;3.47;100.00
38400;BME280;24180;42.676;23.320;2023-02-15T07:51:52;96063.81;;;3.32;100.00
38400;BME280;24180;42.676;23.320;2023-02-15T07:54:17;96059.78;;;3.45;100.00
38400;BME280;24180;42.676;23.320;2023-02-15T07:56:42;96072.28;;;3.53;100.00
38400;BME280;24180;42.676;23.320;2023-02-15T07:59:08;96044.56;;;3.42;100.00
38400;BME280;24180;42.676;23.320;2023-02-15T08:01:36;96052.31;;;3.59;100.00
38400;BME280;24180;42.676;23.320;2023-02-15T08:04:03;96050.25;;;3.49;100.00
38400;BME280;24180;42.676;23.320;2023-02-15T08:06:32;96035.66;;;3.32;100.00
38400;BME280;24180;42.676;23.320;2023-02-15T08:08:57;96036.69;;;3.28;100.00
38400;BME280;24180;42.676;23.320;2023-02-15T08:11:27;96071.53;;;3.30;100.00
38400;BME280;24180;42.676;23.320;2023-02-15T08:14:14;96077.34;;;3.34;100.00
38400;BME280;24180;42.676;23.320;2023-02-15T08:16:42;96065.03;;;3.23;100.00
38400;BME280;24180;42.676;23.320;2023-02-15T08:19:21;96071.69;;;3.46;100.00
38400;BME280;24180;42.676;23.320;2023-02-15T08:21:52;96063.94;;;3.48;100.00
38400;BME280;24180;42.676;23.320;2023-02-15T08:24:22;96016.31;;;3.25;100.00
38400;BME280;24180;42.676;23.320;2023-02-15T08:26:49;96071.81;;;3.62;100.00
38400;BME280;24180;42.676;23.320;2023-02-15T08:29:16;96078.75;;;3.78;100.00
38400;BME280;24180;42.676;23.320;2023-02-15T08:31:43;96078.19;;;3.91;100.00
38400;BME280;24180;42.676;23.320;2023-02-15T08:34:10;96077.50;;;3.87;100.00
38400;BME280;24180;42.676;23.320;2023-02-15T08:36:36;96045.53;;;3.58;100.00
38400;BME280;24180;42.676;23.320;2023-02-15T08:39:04;96053.91;;;3.62;100.00
38400;BME280;24180;42.676;23.320;2023-02-15T08:41:34;96063.94;;;3.66;100.00
38400;BME280;24180;42.676;23.320;2023-02-15T08:44:04;96051.28;;;3.63;100.00
38400;BME280;24180;42.676;23.320;2023-02-15T08:46:35;96048.31;;;3.72;100.00
38400;BME280;24180;42.676;23.320;2023-02-15T08:49:02;96086.75;;;3.90;100.00
38400;BME280;24180;42.676;23.320;2023-02-15T08:51:30;96086.59;;;3.75;100.00
38400;BME280;24180;42.676;23.320;2023-02-15T08:53:58;96064.63;;;3.70;100.00
38400;BME280;24180;42.676;23.320;2023-02-15T08:56:29;96085.25;;;3.86;100.00
38400;BME280;24180;42.676;23.320;2023-02-15T08:58:55;96082.56;;;3.70;100.00
38400;BME280;24180;42.676;23.320;2023-02-15T09:01:23;96071.34;;;3.72;100.00
38400;BME280;24180;42.676;23.320;2023-02-15T09:03:51;96062.75;;;3.73;100.00
38400;BME280;24180;42.676;23.320;2023-02-15T09:06:21;96052.50;;;3.73;100.00
38400;BME280;24180;42.676;23.320;2023-02-15T09:08:47;96049.09;;;3.92;100.00
38400;BME280;24180;42.676;23.320;2023-02-15T09:11:15;96062.84;;;4.08;100.00
38400;BME280;24180;42.676;23.320;2023-02-15T09:13:48;96053.59;;;4.22;100.00
38400;BME280;24180;42.676;23.320;2023-02-15T09:16:15;96059.16;;;4.13;100.00
38400;BME280;24180;42.676;23.320;2023-02-15T09:18:42;96082.44;;;4.45;100.00
38400;BME280;24180;42.676;23.320;2023-02-15T09:21:13;96035.22;;;4.32;100.00
38400;BME280;24180;42.676;23.320;2023-02-15T09:23:40;96074.34;;;4.87;100.00
38400;BME280;24180;42.676;23.320;2023-02-15T09:26:08;96053.59;;;4.74;100.00
38400;BME280;24180;42.676;23.320;2023-02-15T09:28:54;96074.44;;;4.85;100.00
38400;BME280;24180;42.676;23.320;2023-02-15T09:31:32;96066.66;;;4.69;100.00
38400;BME280;24180;42.676;23.320;2023-02-15T09:33:59;96088.72;;;4.56;100.00
38400;BME280;24180;42.676;23.320;2023-02-15T10:00:21;96079.19;;;4.93;100.00
38400;BME280;24180;42.676;23.320;2023-02-15T10:05:50;96076.69;;;4.74;100.00
38400;BME280;24180;42.676;23.320;2023-02-15T10:11:16;96040.44;;;5.30;100.00
38400;BME280;24180;42.676;23.320;2023-02-15T10:29:00;96039.97;;;5.71;100.00
38400;BME280;24180;42.676;23.320;2023-02-15T10:31:28;96010.63;;;5.43;100.00
38400;BME280;24180;42.676;23.320;2023-02-15T10:42:15;96037.19;;;5.91;100.00
38400;BME280;24180;42.676;23.320;2023-02-15T10:44:56;96054.56;;;5.86;100.00
38400;BME280;24180;42.676;23.320;2023-02-15T10:50:42;96033.09;;;5.55;100.00
38400;BME280;24180;42.676;23.320;2023-02-15T10:56:19;96004.50;;;5.61;100.00
38400;BME280;24180;42.676;23.320;2023-02-15T10:59:23;96037.22;;;6.94;100.00
38400;BME280;24180;42.676;23.320;2023-02-15T11:01:58;96030.50;;;6.78;100.00
38400;BME280;24180;42.676;23.320;2023-02-15T11:04:55;96040.28;;;7.15;100.00
38400;BME280;24180;42.676;23.320;2023-02-15T11:07:24;96009.16;;;6.62;100.00
38400;BME280;24180;42.676;23.320;2023-02-15T11:09:56;96000.72;;;6.74;100.00
38400;BME280;24180;42.676;23.320;2023-02-15T11:12:28;96026.94;;;6.21;100.00
38400;BME280;24180;42.676;23.320;2023-02-15T11:15:02;95998.03;;;5.70;100.00
38400;BME280;24180;42.676;23.320;2023-02-15T11:17:41;95991.47;;;5.17;100.00
38400;BME280;24180;42.676;23.320;2023-02-15T11:20:22;96003.81;;;5.42;100.00
38400;BME280;24180;42.676;23.320;2023-02-15T11:22:51;96022.50;;;5.61;100.00
38400;BME280;24180;42.676;23.320;2023-02-15T11:25:24;96026.94;;;5.58;100.00
38400;BME280;24180;42.676;23.320;2023-02-15T11:27:51;96017.38;;;5.61;100.00
38400;BME280;24180;42.676;23.320;2023-02-15T11:30:27;96017.75;;;5.54;100.00
38400;BME280;24180;42.676;23.320;2023-02-15T11:32:57;95982.59;;;5.39;100.00
38400;BME280;24180;42.676;23.320;2023-02-15T11:35:42;96018.56;;;5.23;100.00
38400;BME280;24180;42.676;23.320;2023-02-15T11:38:20;96025.22;;;5.58;100.00
38400;BME280;24180;42.676;23.320;2023-02-15T11:40:49;96009.97;;;5.71;100.00
38400;BME280;24180;42.676;23.320;2023-02-15T11:44:06;96015.28;;;5.37;100.00
38400;BME280;24180;42.676;23.320;2023-02-15T11:46:13;96002.25;;;4.91;100.00
38400;BME280;24180;42.676;23.320;2023-02-15T11:48:40;96003.72;;;4.80;100.00
38400;BME280;24180;42.676;23.320;2023-02-15T11:51:18;95993.47;;;4.62;100.00
38400;BME280;24180;42.676;23.320;2023-02-15T11:53:46;95932.03;;;4.27;100.00
38400;BME280;24180;42.676;23.320;2023-02-15T11:56:18;95993.25;;;4.50;100.00
38400;BME280;24180;42.676;23.320;2023-02-15T12:01:28;95989.38;;;4.76;100.00
38400;BME280;24180;42.676;23.320;2023-02-15T12:04:38;95970.19;;;4.83;100.00
38400;BME280;24180;42.676;23.320;2023-02-15T12:07:23;95971.53;;;4.90;100.00
38400;BME280;24180;42.676;23.320;2023-02-15T12:09:58;95956.13;;;4.90;100.00
38400;BME280;24180;42.676;23.320;2023-02-15T12:12:31;95927.38;;;4.67;100.00
38400;BME280;24180;42.676;23.320;2023-02-15T12:14:58;95934.84;;;4.72;100.00
38400;BME280;24180;42.676;23.320;2023-02-15T12:17:30;95940.94;;;4.69;100.00
38400;BME280;24180;42.676;23.320;2023-02-15T12:19:57;95966.69;;;5.01;100.00
38400;BME280;24180;42.676;23.320;2023-02-15T12:22:27;95922.53;;;4.61;100.00
38400;BME280;24180;42.676;23.320;2023-02-15T12:24:56;95957.53;;;4.80;100.00
38400;BME280;24180;42.676;23.320;2023-02-15T12:27:34;95935.75;;;4.71;100.00
38400;BME280;24180;42.676;23.320;2023-02-15T12:33:07;95961.78;;;4.96;100.00
38400;BME280;24180;42.676;23.320;2023-02-15T12:35:39;95932.78;;;4.79;100.00
38400;BME280;24180;42.676;23.320;2023-02-15T12:40:36;95928.19;;;5.01;100.00
38400;BME280;24180;42.676;23.320;2023-02-15T12:43:03;95933.13;;;4.88;100.00
38400;BME280;24180;42.676;23.320;2023-02-15T12:45:35;95902.81;;;4.79;100.00
38400;BME280;24180;42.676;23.320;2023-02-15T12:50:40;95929.25;;;5.12;100.00
38400;BME280;24180;42.676;23.320;2023-02-15T12:53:21;95921.47;;;5.14;100.00
38400;BME280;24180;42.676;23.320;2023-02-15T12:55:55;95928.44;;;5.12;100.00
38400;BME280;24180;42.676;23.320;2023-02-15T12:58:26;95906.06;;;4.98;100.00
38400;BME280;24180;42.676;23.320;2023-02-15T13:01:15;95917.66;;;5.05;100.00
38400;BME280;24180;42.676;23.320;2023-02-15T13:06:23;95870.78;;;4.86;100.00
38400;BME280;24180;42.676;23.320;2023-02-15T13:08:53;95923.06;;;5.16;100.00
38400;BME280;24180;42.676;23.320;2023-02-15T13:11:25;95915.19;;;5.19;100.00
38400;BME280;24180;42.676;23.320;2023-02-15T13:13:54;95911.59;;;5.22;100.00
38400;BME280;24180;42.676;23.320;2023-02-15T13:16:30;95885.69;;;5.11;100.00
38400;BME280;24180;42.676;23.320;2023-02-15T13:18:57;95894.56;;;5.21;100.00
38400;BME280;24180;42.676;23.320;2023-02-15T13:21:27;95904.91;;;5.35;100.00
38400;BME280;24180;42.676;23.320;2023-02-15T13:23:59;95907.72;;;5.31;100.00
38400;BME280;24180;42.676;23.320;2023-02-15T13:26:27;95907.81;;;5.29;100.00
38400;BME280;24180;42.676;23.320;2023-02-15T13:29:05;95883.13;;;5.27;100.00
38400;BME280;24180;42.676;23.320;2023-02-15T13:31:34;95906.72;;;5.49;100.00
38400;BME280;24180;42.676;23.320;2023-02-15T13:34:10;95918.38;;;5.54;100.00
38400;BME280;24180;42.676;23.320;2023-02-15T13:37:06;95881.31;;;5.29;100.00
38400;BME280;24180;42.676;23.320;2023-02-15T13:42:20;95911.34;;;5.42;100.00
38400;BME280;24180;42.676;23.320;2023-02-15T13:45:39;95915.34;;;5.48;100.00
38400;BME280;24180;42.676;23.320;2023-02-15T13:48:10;95923.69;;;5.51;100.00
38400;BME280;24180;42.676;23.320;2023-02-15T14:00:16;95884.69;;;5.45;100.00
38400;BME280;24180;42.676;23.320;2023-02-15T14:03:15;95926.91;;;5.55;100.00
38400;BME280;24180;42.676;23.320;2023-02-15T14:17:03;95950.72;;;5.43;100.00
38400;BME280;24180;42.676;23.320;2023-02-15T14:19:40;95949.47;;;5.34;100.00
38400;BME280;24180;42.676;23.320;2023-02-15T14:27:19;95940.84;;;5.19;100.00
38400;BME280;24180;42.676;23.320;2023-02-15T14:30:00;95957.75;;;5.24;100.00
38400;BME280;24180;42.676;23.320;2023-02-15T14:32:39;95955.00;;;5.11;100.00
38400;BME280;24180;42.676;23.320;2023-02-15T14:35:17;95931.06;;;4.95;100.00
38400;BME280;24180;42.676;23.320;2023-02-15T14:38:47;95961.22;;;5.07;100.00
38400;BME280;24180;42.676;23.320;2023-02-15T14:46:42;95929.47;;;4.77;100.00
38400;BME280;24180;42.676;23.320;2023-02-15T14:49:12;95949.69;;;4.98;100.00
38400;BME280;24180;42.676;23.320;2023-02-15T14:56:46;95920.09;;;4.76;100.00
38400;BME280;24180;42.676;23.320;2023-02-15T14:59:18;95952.44;;;4.95;100.00
38400;BME280;24180;42.676;23.320;2023-02-15T15:07:35;95949.03;;;4.62;100.00
38400;BME280;24180;42.676;23.320;2023-02-15T15:20:48;95952.84;;;4.38;100.00
38400;BME280;24180;42.676;23.320;2023-02-15T15:34:35;95968.53;;;4.14;100.00
38400;BME280;24180;42.676;23.320;2023-02-15T15:37:46;95941.69;;;3.87;100.00
38400;BME280;24180;42.676;23.320;2023-02-15T15:50:58;95947.78;;;3.67;100.00
38400;BME280;24180;42.676;23.320;2023-02-15T15:53:26;95986.47;;;3.80;100.00
38400;BME280;24180;42.676;23.320;2023-02-15T15:56:00;95981.75;;;3.71;100.00
38400;BME280;24180;42.676;23.320;2023-02-15T15:58:27;95966.91;;;3.60;100.00
38400;BME280;24180;42.676;23.320;2023-02-15T16:00:59;95981.13;;;3.66;100.00
38400;BME280;24180;42.676;23.320;2023-02-15T16:03:29;95989.03;;;3.61;100.00
38400;BME280;24180;42.676;23.320;2023-02-15T16:05:55;95950.13;;;3.36;100.00
38400;BME280;24180;42.676;23.320;2023-02-15T16:10:55;95939.00;;;3.18;100.00
38400;BME280;24180;42.676;23.320;2023-02-15T16:13:21;95985.66;;;3.42;100.00
38400;BME280;24180;42.676;23.320;2023-02-15T16:15:47;95967.22;;;3.36;100.00
38400;BME280;24180;42.676;23.320;2023-02-15T16:18:21;95976.88;;;3.29;100.00
38400;BME280;24180;42.676;23.320;2023-02-15T16:20:55;95983.81;;;3.27;100.00
38400;BME280;24180;42.676;23.320;2023-02-15T16:29:14;95967.63;;;3.08;100.00
38400;BME280;24180;42.676;23.320;2023-02-15T16:31:40;95971.94;;;3.07;100.00
38400;BME280;24180;42.676;23.320;2023-02-15T16:34:09;95984.88;;;3.04;100.00
38400;BME280;24180;42.676;23.320;2023-02-15T16:36:41;95949.66;;;2.91;100.00